Flight Track Log - Related Links

Times and Time Zones

All times are in EDT time to prevent confusion due to time zone crossing. See the AMX169 flight status page for this flight to view local times or setup timezone preferences in your user account.

Time Position Orientation Groundspeed Altitude Reporting Facility
EDT Latitude Longitude Course Direction KTS MPH feet Rate Location/Type
Tue 08:27:00 AM 24.0059 -106.1926 123° Southeast  Level Estimated
Tue 08:28:00 AM 23.9471 -106.0946 123° Southeast  Level Estimated
Tue 08:29:00 AM 23.8882 -105.9967 123° Southeast  Level Estimated
Tue 08:30:00 AM 23.8293 -105.8989 123° Southeast  Level Estimated
Tue 08:31:00 AM 23.7703 -105.8012 123° Southeast  Level Estimated
Tue 08:32:00 AM 23.7112 -105.7035 123° Southeast  Level Estimated
Tue 08:33:00 AM 23.6521 -105.6060 123° Southeast  Level Estimated
Tue 08:34:00 AM 23.5930 -105.5085 124° Southeast  Level Estimated
Tue 08:35:00 AM 23.5337 -105.4112 124° Southeast  Level Estimated
Tue 08:36:00 AM 23.4744 -105.3139 124° Southeast  Level Estimated
Tue 08:37:00 AM 23.4151 -105.2167 124° Southeast  Level Estimated
Tue 08:38:00 AM 23.3557 -105.1196 124° Southeast  Level Estimated
Tue 08:39:00 AM 23.2962 -105.0226 124° Southeast  Level Estimated
Tue 08:40:00 AM 23.2367 -104.9256 124° Southeast  Level Estimated
Tue 08:41:00 AM 23.1771 -104.8288 124° Southeast  Level Estimated
Tue 08:42:00 AM 23.1174 -104.7320 124° Southeast  Level Estimated
Tue 08:43:00 AM 23.0577 -104.6353 124° Southeast  Level Estimated
Tue 08:44:00 AM 22.9979 -104.5387 124° Southeast  Level Estimated
Tue 08:45:00 AM 22.9381 -104.4422 124° Southeast  Level Estimated
Tue 08:46:00 AM 22.8782 -104.3458 124° Southeast  Level Estimated
Tue 08:47:00 AM 22.8183 -104.2495 124° Southeast  Level Estimated
Tue 08:48:00 AM 22.7583 -104.1532 124° Southeast  Level Estimated
Tue 08:49:00 AM 22.6982 -104.0571 124° Southeast  Level Estimated
Tue 08:50:00 AM 22.6381 -103.9610 124° Southeast  Level Estimated
Tue 08:51:00 AM 22.5779 -103.8650 124° Southeast  Level Estimated
Tue 08:52:00 AM 22.5177 -103.7691 124° Southeast  Level Estimated
Tue 08:53:00 AM 22.4574 -103.6732 124° Southeast  Level Estimated
Tue 08:54:00 AM 22.3971 -103.5775 124° Southeast  Level Estimated
Tue 08:55:00 AM 22.3367 -103.4818 124° Southeast  Level Estimated
Tue 08:56:00 AM 22.2762 -103.3863 124° Southeast  Level Estimated
Tue 08:57:00 AM 22.2157 -103.2908 124° Southeast  Level Estimated
Tue 08:58:00 AM 22.1551 -103.1954 124° Southeast  Level Estimated
Tue 08:59:00 AM 22.0945 -103.1000 124° Southeast  Level Estimated
Tue 09:00:00 AM 22.0338 -103.0048 124° Southeast  Level Estimated
Tue 09:01:00 AM 21.9731 -102.9096 125° Southeast  Level Estimated
Tue 09:02:00 AM 21.9123 -102.8145 125° Southeast  Level Estimated
Tue 09:03:00 AM 21.8515 -102.7195 125° Southeast  Level Estimated
Tue 09:04:00 AM 21.7906 -102.6246 125° Southeast  Level Estimated
Tue 09:05:00 AM 21.7296 -102.5297 125° Southeast  Level Estimated
Tue 09:06:00 AM 21.6686 -102.4350 125° Southeast  Level Estimated
Tue 09:07:00 AM 21.6075 -102.3403 125° Southeast  Level Estimated
Tue 09:08:00 AM 21.5464 -102.2457 125° Southeast  Level Estimated
Tue 09:09:00 AM 21.4853 -102.1512 125° Southeast  Level Estimated
Tue 09:10:00 AM 21.4241 -102.0567 125° Southeast  Level Estimated
Tue 09:11:00 AM 21.3628 -101.9623 125° Southeast  Level Estimated
Tue 09:12:00 AM 21.3015 -101.8681 125° Southeast  Level Estimated
Tue 09:13:00 AM 21.2401 -101.7739 125° Southeast  Level Estimated
Tue 09:14:00 AM 21.1786 -101.6797 125° Southeast  Level Estimated
Tue 09:15:00 AM 21.1172 -101.5857 125° Southeast  Level Estimated
Tue 09:16:00 AM 21.0556 -101.4917 125° Southeast  Level Estimated
Tue 09:17:00 AM 20.9940 -101.3978 125° Southeast  Level Estimated
Tue 09:18:00 AM 20.9324 -101.3040 125° Southeast  Level Estimated
Tue 09:19:00 AM 20.8707 -101.2103 125° Southeast  Level Estimated
Tue 09:20:00 AM 20.8090 -101.1166 125° Southeast  Level Estimated
Tue 09:21:00 AM 20.7472 -101.0230 125° Southeast  Level Estimated
Tue 09:22:00 AM 20.6854 -100.9295 125° Southeast  Level Estimated
Tue 09:23:00 AM 20.6235 -100.8361 125° Southeast  Level Estimated
Tue 09:24:00 AM 20.5615 -100.7427 125° Southeast  Level Estimated
Tue 09:25:00 AM 20.4995 -100.6494 125° Southeast  Level Estimated
Tue 09:26:00 AM 20.4375 -100.5562 125° Southeast  Level Estimated
Tue 09:27:00 AM 20.3754 -100.4631 125° Southeast  Level Estimated
Tue 09:28:00 AM 20.3133 -100.3700 125° Southeast  Level Estimated
Tue 09:29:00 AM 20.2511 -100.2770 125° Southeast  Level Estimated
Tue 09:30:00 AM 20.1888 -100.1841 126° Southeast  Level Estimated
Tue 09:31:00 AM 20.1266 -100.0913 126° Southeast  Level Estimated
Tue 09:32:00 AM 20.0642 -99.9985 126° Southeast  Level Estimated
Tue 09:33:00 AM 20.0018 -99.9058 126° Southeast  Level Estimated
Tue 09:34:00 AM 19.9394 -99.8132 126° Southeast  Level Estimated
Tue 09:35:00 AM 19.8769 -99.7207 126° Southeast  Level Estimated
Tue 09:36:00 AM 19.8144 -99.6282 126° Southeast  Level Estimated
Tue 09:37:00 AM 19.7518 -99.5358 126° Southeast  Level Estimated
Tue 09:38:00 AM 19.6892 -99.4435 126° Southeast  Level Estimated
Tue 09:39:00 AM 19.6265 -99.3512 126° Southeast  Level Estimated
Tue 09:40:00 AM 19.5638 -99.2591 126° Southeast  Level Estimated
Tue 09:41:00 AM 19.5011 -99.1670 126° Southeast  Level Estimated
Tue 09:42:00 AM 19.4382 -99.0749 126° Southeast  Level Estimated
Tue 09:43:00 AM 19.4363 -99.0721 126° Southeast  Level Estimated
Tue 09:44:00 AM 19.4363 -99.0721 North  Level Estimated
Tue 09:45:00 AM 19.4363 -99.0721 North  Level Estimated
Tue 09:46:00 AM 19.4363 -99.0721 North  Level Estimated
Tue 09:47:00 AM 19.4363 -99.0721 North  Level Estimated
Tue 09:48:00 AM 19.4363 -99.0721 North  Level Estimated
Tue 09:49:00 AM 19.4363 -99.0721 North  Level Estimated
Tue 09:50:00 AM 19.4363 -99.0721 North  Level Estimated
Tue 09:51:00 AM 19.4363 -99.0721 North  Level Estimated
Tue 09:52:00 AM 19.4363 -99.0721 North  Level Estimated
Tue 09:53:00 AM 19.4363 -99.0721 North  Level Estimated
Tue 09:54:00 AM 19.4363 -99.0721 North  Level Estimated
Tue 09:55:00 AM 19.4363 -99.0721 North  Level Estimated
Tue 09:56:00 AM 19.4363 -99.0721 North  Level Estimated
Tue 09:57:00 AM 19.4363 -99.0721 North  Level Estimated
Tue 09:58:00 AM 19.4363 -99.0721 North  Level Estimated

Login

Don't have an account? Register now (free) for customized features, flight alerts, and more!